sensor_id;sensor_type;location;lat;lon;timestamp;P1;durP1;ratioP1;P2;durP2;ratioP2
6145;SDS011;3104;50.348;7.620;2022-09-21T00:00:44;4.80;;;2.20;;
6145;SDS011;3104;50.348;7.620;2022-09-21T00:03:10;2.10;;;2.00;;
6145;SDS011;3104;50.348;7.620;2022-09-21T00:05:36;6.80;;;4.13;;
6145;SDS011;3104;50.348;7.620;2022-09-21T00:08:02;2.90;;;2.20;;
6145;SDS011;3104;50.348;7.620;2022-09-21T00:10:30;2.40;;;2.20;;
6145;SDS011;3104;50.348;7.620;2022-09-21T00:12:57;2.00;;;1.80;;
6145;SDS011;3104;50.348;7.620;2022-09-21T00:15:23;2.80;;;2.10;;
6145;SDS011;3104;50.348;7.620;2022-09-21T00:17:52;2.40;;;2.10;;
6145;SDS011;3104;50.348;7.620;2022-09-21T00:20:19;4.00;;;2.67;;
6145;SDS011;3104;50.348;7.620;2022-09-21T00:22:45;2.57;;;2.37;;
6145;SDS011;3104;50.348;7.620;2022-09-21T00:25:12;2.97;;;2.40;;
6145;SDS011;3104;50.348;7.620;2022-09-21T00:27:38;3.40;;;2.50;;
6145;SDS011;3104;50.348;7.620;2022-09-21T00:30:04;2.73;;;2.53;;
6145;SDS011;3104;50.348;7.620;2022-09-21T00:32:31;2.93;;;2.13;;
6145;SDS011;3104;50.348;7.620;2022-09-21T00:34:58;4.73;;;2.30;;
6145;SDS011;3104;50.348;7.620;2022-09-21T00:37:25;3.30;;;2.00;;
6145;SDS011;3104;50.348;7.620;2022-09-21T00:39:51;2.70;;;2.23;;
6145;SDS011;3104;50.348;7.620;2022-09-21T00:42:19;3.83;;;2.30;;
6145;SDS011;3104;50.348;7.620;2022-09-21T00:44:44;2.80;;;2.20;;
6145;SDS011;3104;50.348;7.620;2022-09-21T00:47:14;2.67;;;2.47;;
6145;SDS011;3104;50.348;7.620;2022-09-21T00:49:42;4.20;;;2.43;;
6145;SDS011;3104;50.348;7.620;2022-09-21T00:52:13;3.13;;;2.30;;
6145;SDS011;3104;50.348;7.620;2022-09-21T00:54:45;2.50;;;2.20;;
6145;SDS011;3104;50.348;7.620;2022-09-21T00:57:16;3.43;;;2.57;;
6145;SDS011;3104;50.348;7.620;2022-09-21T00:59:43;2.40;;;2.20;;
6145;SDS011;3104;50.348;7.620;2022-09-21T01:02:10;5.40;;;2.37;;
6145;SDS011;3104;50.348;7.620;2022-09-21T01:04:37;3.27;;;2.50;;
6145;SDS011;3104;50.348;7.620;2022-09-21T01:07:04;2.87;;;2.30;;
6145;SDS011;3104;50.348;7.620;2022-09-21T01:09:36;8.60;;;3.20;;
6145;SDS011;3104;50.348;7.620;2022-09-21T01:17:54;2.67;;;2.47;;
6145;SDS011;3104;50.348;7.620;2022-09-21T01:20:41;4.37;;;2.37;;
6145;SDS011;3104;50.348;7.620;2022-09-21T01:28:51;2.70;;;2.50;;
6145;SDS011;3104;50.348;7.620;2022-09-21T01:31:37;3.27;;;2.97;;
6145;SDS011;3104;50.348;7.620;2022-09-21T01:34:08;3.83;;;2.73;;
6145;SDS011;3104;50.348;7.620;2022-09-21T01:36:39;4.83;;;2.87;;
6145;SDS011;3104;50.348;7.620;2022-09-21T01:39:07;18.90;;;4.50;;
6145;SDS011;3104;50.348;7.620;2022-09-21T01:41:36;7.53;;;4.27;;
6145;SDS011;3104;50.348;7.620;2022-09-21T01:44:08;7.23;;;4.00;;
6145;SDS011;3104;50.348;7.620;2022-09-21T01:46:38;18.63;;;5.03;;
6145;SDS011;3104;50.348;7.620;2022-09-21T01:49:08;63.73;;;9.13;;
6145;SDS011;3104;50.348;7.620;2022-09-21T01:51:41;154.60;;;11.87;;
6145;SDS011;3104;50.348;7.620;2022-09-21T01:54:20;203.23;;;15.60;;
6145;SDS011;3104;50.348;7.620;2022-09-21T01:59:56;36.03;;;7.03;;
6145;SDS011;3104;50.348;7.620;2022-09-21T02:02:32;136.17;;;14.60;;
6145;SDS011;3104;50.348;7.620;2022-09-21T02:05:10;112.77;;;12.50;;
6145;SDS011;3104;50.348;7.620;2022-09-21T02:07:37;101.77;;;11.13;;
6145;SDS011;3104;50.348;7.620;2022-09-21T02:10:04;234.37;;;17.37;;
6145;SDS011;3104;50.348;7.620;2022-09-21T02:12:32;126.57;;;11.80;;
6145;SDS011;3104;50.348;7.620;2022-09-21T02:14:58;102.63;;;12.63;;
6145;SDS011;3104;50.348;7.620;2022-09-21T02:20:16;84.10;;;10.53;;
6145;SDS011;3104;50.348;7.620;2022-09-21T02:22:53;91.63;;;12.50;;
6145;SDS011;3104;50.348;7.620;2022-09-21T02:25:28;85.43;;;12.37;;
6145;SDS011;3104;50.348;7.620;2022-09-21T02:28:00;42.53;;;9.33;;
6145;SDS011;3104;50.348;7.620;2022-09-21T02:30:33;68.03;;;11.80;;
6145;SDS011;3104;50.348;7.620;2022-09-21T02:35:38;103.50;;;12.70;;
6145;SDS011;3104;50.348;7.620;2022-09-21T02:41:13;16.50;;;10.80;;
6145;SDS011;3104;50.348;7.620;2022-09-21T02:43:45;24.23;;;10.13;;
6145;SDS011;3104;50.348;7.620;2022-09-21T02:46:17;37.60;;;10.27;;
6145;SDS011;3104;50.348;7.620;2022-09-21T02:48:50;71.60;;;12.60;;
6145;SDS011;3104;50.348;7.620;2022-09-21T02:51:20;70.27;;;12.83;;
6145;SDS011;3104;50.348;7.620;2022-09-21T02:54:00;33.10;;;9.57;;
6145;SDS011;3104;50.348;7.620;2022-09-21T02:56:29;81.13;;;12.00;;
6145;SDS011;3104;50.348;7.620;2022-09-21T02:58:56;311.23;;;23.87;;
6145;SDS011;3104;50.348;7.620;2022-09-21T03:01:25;231.23;;;22.53;;
6145;SDS011;3104;50.348;7.620;2022-09-21T03:03:52;412.97;;;34.60;;
6145;SDS011;3104;50.348;7.620;2022-09-21T03:06:18;126.83;;;14.20;;
6145;SDS011;3104;50.348;7.620;2022-09-21T03:08:43;242.93;;;21.30;;
6145;SDS011;3104;50.348;7.620;2022-09-21T03:11:09;26.83;;;8.80;;
6145;SDS011;3104;50.348;7.620;2022-09-21T03:13:35;193.63;;;19.20;;
6145;SDS011;3104;50.348;7.620;2022-09-21T03:16:04;100.67;;;13.93;;
6145;SDS011;3104;50.348;7.620;2022-09-21T03:18:33;170.77;;;18.87;;
6145;SDS011;3104;50.348;7.620;2022-09-21T03:20:59;102.67;;;13.80;;
6145;SDS011;3104;50.348;7.620;2022-09-21T03:23:26;61.50;;;11.00;;
6145;SDS011;3104;50.348;7.620;2022-09-21T03:25:52;80.50;;;13.30;;
6145;SDS011;3104;50.348;7.620;2022-09-21T03:28:18;188.47;;;18.30;;
6145;SDS011;3104;50.348;7.620;2022-09-21T03:30:45;83.50;;;13.00;;
6145;SDS011;3104;50.348;7.620;2022-09-21T03:33:12;296.77;;;26.07;;
6145;SDS011;3104;50.348;7.620;2022-09-21T03:35:38;191.13;;;20.30;;
6145;SDS011;3104;50.348;7.620;2022-09-21T03:38:04;56.77;;;12.80;;
6145;SDS011;3104;50.348;7.620;2022-09-21T03:40:29;10.10;;;7.53;;
6145;SDS011;3104;50.348;7.620;2022-09-21T03:42:56;290.30;;;24.77;;
6145;SDS011;3104;50.348;7.620;2022-09-21T03:45:22;220.57;;;20.57;;
6145;SDS011;3104;50.348;7.620;2022-09-21T03:47:48;279.73;;;23.73;;
6145;SDS011;3104;50.348;7.620;2022-09-21T03:50:14;10.17;;;7.40;;
6145;SDS011;3104;50.348;7.620;2022-09-21T03:52:40;359.73;;;32.43;;
6145;SDS011;3104;50.348;7.620;2022-09-21T03:55:06;189.87;;;20.87;;
6145;SDS011;3104;50.348;7.620;2022-09-21T03:57:33;475.30;;;39.07;;
6145;SDS011;3104;50.348;7.620;2022-09-21T04:00:00;234.30;;;22.10;;
6145;SDS011;3104;50.348;7.620;2022-09-21T04:02:27;14.37;;;9.90;;
6145;SDS011;3104;50.348;7.620;2022-09-21T04:04:53;92.37;;;13.50;;
6145;SDS011;3104;50.348;7.620;2022-09-21T04:07:19;275.53;;;26.13;;
6145;SDS011;3104;50.348;7.620;2022-09-21T04:09:44;565.07;;;43.20;;
6145;SDS011;3104;50.348;7.620;2022-09-21T04:12:10;261.30;;;26.07;;
6145;SDS011;3104;50.348;7.620;2022-09-21T04:14:36;138.83;;;16.80;;
6145;SDS011;3104;50.348;7.620;2022-09-21T04:17:02;71.23;;;13.33;;
6145;SDS011;3104;50.348;7.620;2022-09-21T04:19:28;271.97;;;24.33;;
6145;SDS011;3104;50.348;7.620;2022-09-21T04:21:54;257.97;;;22.83;;
6145;SDS011;3104;50.348;7.620;2022-09-21T04:24:20;76.23;;;13.30;;
6145;SDS011;3104;50.348;7.620;2022-09-21T04:26:46;95.87;;;12.63;;
6145;SDS011;3104;50.348;7.620;2022-09-21T04:29:12;95.77;;;15.00;;
6145;SDS011;3104;50.348;7.620;2022-09-21T04:31:38;361.90;;;29.40;;
6145;SDS011;3104;50.348;7.620;2022-09-21T04:34:04;158.10;;;19.57;;
6145;SDS011;3104;50.348;7.620;2022-09-21T04:36:30;260.27;;;23.60;;
6145;SDS011;3104;50.348;7.620;2022-09-21T04:38:56;42.47;;;10.47;;
6145;SDS011;3104;50.348;7.620;2022-09-21T04:41:24;53.27;;;9.70;;
6145;SDS011;3104;50.348;7.620;2022-09-21T04:43:51;78.83;;;10.23;;
6145;SDS011;3104;50.348;7.620;2022-09-21T04:46:17;30.77;;;7.77;;
6145;SDS011;3104;50.348;7.620;2022-09-21T04:48:44;13.20;;;6.50;;
6145;SDS011;3104;50.348;7.620;2022-09-21T04:51:11;18.23;;;7.40;;
6145;SDS011;3104;50.348;7.620;2022-09-21T04:53:38;17.63;;;7.10;;
6145;SDS011;3104;50.348;7.620;2022-09-21T04:56:05;8.20;;;5.93;;
6145;SDS011;3104;50.348;7.620;2022-09-21T04:58:31;14.20;;;6.57;;
6145;SDS011;3104;50.348;7.620;2022-09-21T05:00:57;13.40;;;6.43;;
6145;SDS011;3104;50.348;7.620;2022-09-21T05:03:24;6.90;;;5.63;;
6145;SDS011;3104;50.348;7.620;2022-09-21T05:05:53;9.97;;;6.30;;
6145;SDS011;3104;50.348;7.620;2022-09-21T05:08:21;11.20;;;6.00;;
6145;SDS011;3104;50.348;7.620;2022-09-21T05:11:09;8.13;;;5.70;;
6145;SDS011;3104;50.348;7.620;2022-09-21T05:13:37;10.30;;;5.63;;
6145;SDS011;3104;50.348;7.620;2022-09-21T05:16:03;8.00;;;6.30;;
6145;SDS011;3104;50.348;7.620;2022-09-21T05:18:29;18.47;;;7.33;;
6145;SDS011;3104;50.348;7.620;2022-09-21T05:20:55;34.67;;;24.97;;
6145;SDS011;3104;50.348;7.620;2022-09-21T05:23:24;12.07;;;10.17;;
6145;SDS011;3104;50.348;7.620;2022-09-21T05:25:51;46.97;;;27.20;;
6145;SDS011;3104;50.348;7.620;2022-09-21T05:28:17;16.37;;;14.67;;
6145;SDS011;3104;50.348;7.620;2022-09-21T05:30:53;105.10;;;54.43;;
6145;SDS011;3104;50.348;7.620;2022-09-21T05:33:25;41.57;;;12.57;;
6145;SDS011;3104;50.348;7.620;2022-09-21T05:38:19;29.13;;;9.40;;
6145;SDS011;3104;50.348;7.620;2022-09-21T05:40:45;17.57;;;7.60;;
6145;SDS011;3104;50.348;7.620;2022-09-21T05:43:14;74.17;;;13.27;;
6145;SDS011;3104;50.348;7.620;2022-09-21T05:45:41;28.70;;;11.67;;
6145;SDS011;3104;50.348;7.620;2022-09-21T05:48:20;23.77;;;9.73;;
6145;SDS011;3104;50.348;7.620;2022-09-21T05:56:10;49.50;;;40.57;;
6145;SDS011;3104;50.348;7.620;2022-09-21T06:04:32;37.07;;;30.33;;
6145;SDS011;3104;50.348;7.620;2022-09-21T06:06:58;31.77;;;16.63;;
6145;SDS011;3104;50.348;7.620;2022-09-21T06:09:23;83.97;;;30.37;;
6145;SDS011;3104;50.348;7.620;2022-09-21T06:11:50;26.67;;;13.67;;
6145;SDS011;3104;50.348;7.620;2022-09-21T06:14:16;48.00;;;24.87;;
6145;SDS011;3104;50.348;7.620;2022-09-21T06:16:48;52.97;;;18.17;;
6145;SDS011;3104;50.348;7.620;2022-09-21T06:19:14;52.77;;;16.43;;
6145;SDS011;3104;50.348;7.620;2022-09-21T06:21:40;23.90;;;6.87;;
6145;SDS011;3104;50.348;7.620;2022-09-21T06:24:06;54.07;;;9.80;;
6145;SDS011;3104;50.348;7.620;2022-09-21T06:26:32;25.40;;;6.23;;
6145;SDS011;3104;50.348;7.620;2022-09-21T06:28:57;30.60;;;7.23;;
6145;SDS011;3104;50.348;7.620;2022-09-21T06:31:23;20.30;;;8.70;;
6145;SDS011;3104;50.348;7.620;2022-09-21T06:33:50;36.20;;;8.20;;
6145;SDS011;3104;50.348;7.620;2022-09-21T06:36:15;32.50;;;8.40;;
6145;SDS011;3104;50.348;7.620;2022-09-21T06:38:41;8.17;;;6.97;;
6145;SDS011;3104;50.348;7.620;2022-09-21T06:41:07;29.23;;;7.43;;
6145;SDS011;3104;50.348;7.620;2022-09-21T06:43:32;32.40;;;7.87;;
6145;SDS011;3104;50.348;7.620;2022-09-21T06:45:59;55.77;;;9.80;;
6145;SDS011;3104;50.348;7.620;2022-09-21T06:48:26;50.63;;;8.90;;
6145;SDS011;3104;50.348;7.620;2022-09-21T06:50:56;33.77;;;7.97;;
6145;SDS011;3104;50.348;7.620;2022-09-21T06:53:23;33.23;;;8.07;;
6145;SDS011;3104;50.348;7.620;2022-09-21T06:55:49;22.70;;;11.20;;
6145;SDS011;3104;50.348;7.620;2022-09-21T06:58:14;16.90;;;8.40;;
6145;SDS011;3104;50.348;7.620;2022-09-21T07:00:40;45.40;;;10.57;;
6145;SDS011;3104;50.348;7.620;2022-09-21T07:03:08;79.53;;;13.97;;
6145;SDS011;3104;50.348;7.620;2022-09-21T07:05:37;27.93;;;13.50;;
6145;SDS011;3104;50.348;7.620;2022-09-21T07:08:03;27.07;;;10.47;;
6145;SDS011;3104;50.348;7.620;2022-09-21T07:10:29;28.23;;;16.17;;
6145;SDS011;3104;50.348;7.620;2022-09-21T07:12:55;36.33;;;21.17;;
6145;SDS011;3104;50.348;7.620;2022-09-21T07:15:25;25.10;;;11.70;;
6145;SDS011;3104;50.348;7.620;2022-09-21T07:17:52;16.37;;;9.80;;
6145;SDS011;3104;50.348;7.620;2022-09-21T07:20:18;29.83;;;11.17;;
6145;SDS011;3104;50.348;7.620;2022-09-21T07:22:44;12.57;;;9.03;;
6145;SDS011;3104;50.348;7.620;2022-09-21T07:25:09;13.67;;;9.40;;
6145;SDS011;3104;50.348;7.620;2022-09-21T07:27:35;15.87;;;11.00;;
6145;SDS011;3104;50.348;7.620;2022-09-21T07:30:00;14.47;;;10.90;;
6145;SDS011;3104;50.348;7.620;2022-09-21T07:32:26;13.30;;;9.40;;
6145;SDS011;3104;50.348;7.620;2022-09-21T07:34:52;11.50;;;7.70;;
6145;SDS011;3104;50.348;7.620;2022-09-21T07:37:21;8.23;;;6.97;;
6145;SDS011;3104;50.348;7.620;2022-09-21T07:39:51;11.40;;;7.80;;
6145;SDS011;3104;50.348;7.620;2022-09-21T07:42:17;9.57;;;7.30;;
6145;SDS011;3104;50.348;7.620;2022-09-21T07:44:44;8.30;;;6.77;;
6145;SDS011;3104;50.348;7.620;2022-09-21T07:47:10;10.63;;;6.93;;
6145;SDS011;3104;50.348;7.620;2022-09-21T07:49:37;9.13;;;7.80;;
6145;SDS011;3104;50.348;7.620;2022-09-21T07:52:03;9.43;;;6.87;;
6145;SDS011;3104;50.348;7.620;2022-09-21T07:54:29;9.97;;;8.43;;
6145;SDS011;3104;50.348;7.620;2022-09-21T07:56:55;10.17;;;7.27;;
6145;SDS011;3104;50.348;7.620;2022-09-21T07:59:39;8.40;;;6.77;;
6145;SDS011;3104;50.348;7.620;2022-09-21T08:02:05;8.57;;;6.33;;
6145;SDS011;3104;50.348;7.620;2022-09-21T08:04:30;9.70;;;6.70;;
6145;SDS011;3104;50.348;7.620;2022-09-21T08:06:56;8.20;;;6.03;;
6145;SDS011;3104;50.348;7.620;2022-09-21T08:09:21;9.77;;;6.97;;
6145;SDS011;3104;50.348;7.620;2022-09-21T08:11:47;8.60;;;7.17;;
6145;SDS011;3104;50.348;7.620;2022-09-21T08:14:13;10.77;;;9.67;;
6145;SDS011;3104;50.348;7.620;2022-09-21T08:16:43;9.40;;;8.40;;
6145;SDS011;3104;50.348;7.620;2022-09-21T08:19:10;10.50;;;9.40;;
6145;SDS011;3104;50.348;7.620;2022-09-21T08:21:36;10.60;;;9.50;;
6145;SDS011;3104;50.348;7.620;2022-09-21T08:24:02;12.37;;;9.33;;
6145;SDS011;3104;50.348;7.620;2022-09-21T08:26:27;12.10;;;9.63;;
6145;SDS011;3104;50.348;7.620;2022-09-21T08:28:53;12.20;;;9.50;;
6145;SDS011;3104;50.348;7.620;2022-09-21T08:31:22;13.70;;;10.20;;
6145;SDS011;3104;50.348;7.620;2022-09-21T08:33:49;13.23;;;10.03;;
6145;SDS011;3104;50.348;7.620;2022-09-21T08:36:16;10.83;;;9.73;;
6145;SDS011;3104;50.348;7.620;2022-09-21T08:38:42;11.17;;;10.07;;
6145;SDS011;3104;50.348;7.620;2022-09-21T08:41:32;11.97;;;10.73;;
6145;SDS011;3104;50.348;7.620;2022-09-21T08:44:09;12.47;;;10.53;;
6145;SDS011;3104;50.348;7.620;2022-09-21T08:46:39;10.73;;;9.60;;
6145;SDS011;3104;50.348;7.620;2022-09-21T08:49:16;12.07;;;9.90;;
6145;SDS011;3104;50.348;7.620;2022-09-21T08:51:48;11.27;;;10.00;;
6145;SDS011;3104;50.348;7.620;2022-09-21T08:57:11;11.30;;;9.77;;
6145;SDS011;3104;50.348;7.620;2022-09-21T08:59:45;10.03;;;9.10;;
6145;SDS011;3104;50.348;7.620;2022-09-21T09:05:11;10.07;;;9.07;;
6145;SDS011;3104;50.348;7.620;2022-09-21T09:08:08;10.93;;;9.83;;
6145;SDS011;3104;50.348;7.620;2022-09-21T09:10:52;11.10;;;10.00;;
6145;SDS011;3104;50.348;7.620;2022-09-21T09:16:35;11.90;;;7.73;;
6145;SDS011;3104;50.348;7.620;2022-09-21T09:21:53;37.50;;;8.53;;
6145;SDS011;3104;50.348;7.620;2022-09-21T09:26:57;8.53;;;7.23;;
6145;SDS011;3104;50.348;7.620;2022-09-21T09:32:14;8.80;;;8.00;;
6145;SDS011;3104;50.348;7.620;2022-09-21T09:34:42;7.50;;;6.90;;
6145;SDS011;3104;50.348;7.620;2022-09-21T09:37:17;9.93;;;7.83;;
6145;SDS011;3104;50.348;7.620;2022-09-21T09:39:49;9.83;;;7.73;;
6145;SDS011;3104;50.348;7.620;2022-09-21T09:45:17;6.93;;;6.10;;
6145;SDS011;3104;50.348;7.620;2022-09-21T09:50:40;8.57;;;7.70;;
6145;SDS011;3104;50.348;7.620;2022-09-21T09:58:03;8.07;;;7.30;;
6145;SDS011;3104;50.348;7.620;2022-09-21T10:00:31;10.17;;;8.10;;
6145;SDS011;3104;50.348;7.620;2022-09-21T10:02:57;9.07;;;7.60;;
6145;SDS011;3104;50.348;7.620;2022-09-21T10:05:24;8.83;;;8.03;;
6145;SDS011;3104;50.348;7.620;2022-09-21T10:07:59;8.20;;;7.40;;
6145;SDS011;3104;50.348;7.620;2022-09-21T10:15:51;9.23;;;8.40;;
6145;SDS011;3104;50.348;7.620;2022-09-21T10:18:24;9.80;;;9.00;;
6145;SDS011;3104;50.348;7.620;2022-09-21T10:21:17;11.57;;;10.20;;
6145;SDS011;3104;50.348;7.620;2022-09-21T10:23:49;11.00;;;9.83;;
6145;SDS011;3104;50.348;7.620;2022-09-21T10:26:33;10.47;;;9.20;;
6145;SDS011;3104;50.348;7.620;2022-09-21T10:31:56;11.00;;;9.90;;
6145;SDS011;3104;50.348;7.620;2022-09-21T10:34:28;13.27;;;12.07;;
6145;SDS011;3104;50.348;7.620;2022-09-21T10:36:55;12.57;;;11.37;;
6145;SDS011;3104;50.348;7.620;2022-09-21T10:39:25;13.10;;;11.60;;
6145;SDS011;3104;50.348;7.620;2022-09-21T10:42:04;14.07;;;10.07;;
6145;SDS011;3104;50.348;7.620;2022-09-21T10:44:40;10.27;;;9.33;;
6145;SDS011;3104;50.348;7.620;2022-09-21T10:49:45;11.77;;;10.60;;
6145;SDS011;3104;50.348;7.620;2022-09-21T10:52:19;10.20;;;9.20;;
6145;SDS011;3104;50.348;7.620;2022-09-21T10:54:48;9.53;;;8.50;;
6145;SDS011;3104;50.348;7.620;2022-09-21T10:57:17;10.93;;;9.80;;
6145;SDS011;3104;50.348;7.620;2022-09-21T10:59:45;11.80;;;10.10;;
6145;SDS011;3104;50.348;7.620;2022-09-21T11:02:53;12.37;;;11.07;;
6145;SDS011;3104;50.348;7.620;2022-09-21T11:05:10;9.20;;;8.30;;
6145;SDS011;3104;50.348;7.620;2022-09-21T11:07:42;8.80;;;7.90;;
6145;SDS011;3104;50.348;7.620;2022-09-21T11:15:22;9.20;;;8.33;;
6145;SDS011;3104;50.348;7.620;2022-09-21T11:23:42;7.93;;;7.10;;
6145;SDS011;3104;50.348;7.620;2022-09-21T11:29:01;8.20;;;7.40;;
6145;SDS011;3104;50.348;7.620;2022-09-21T11:31:51;6.53;;;5.93;;
6145;SDS011;3104;50.348;7.620;2022-09-21T12:04:39;4.20;;;3.80;;
6145;SDS011;3104;50.348;7.620;2022-09-21T12:18:13;3.53;;;3.20;;
6145;SDS011;3104;50.348;7.620;2022-09-21T12:23:53;3.50;;;1.23;;
6145;SDS011;3104;50.348;7.620;2022-09-21T12:26:41;2.93;;;1.13;;
6145;SDS011;3104;50.348;7.620;2022-09-21T12:29:19;2.33;;;1.20;;
6145;SDS011;3104;50.348;7.620;2022-09-21T12:31:56;1.17;;;1.03;;
6145;SDS011;3104;50.348;7.620;2022-09-21T12:34:41;1.60;;;1.50;;
6145;SDS011;3104;50.348;7.620;2022-09-21T12:39:51;2.20;;;1.07;;
6145;SDS011;3104;50.348;7.620;2022-09-21T12:45:25;0.90;;;0.90;;
6145;SDS011;3104;50.348;7.620;2022-09-21T12:47:58;1.17;;;0.93;;
6145;SDS011;3104;50.348;7.620;2022-09-21T12:53:13;1.73;;;0.93;;
6145;SDS011;3104;50.348;7.620;2022-09-21T12:55:47;1.37;;;0.93;;
6145;SDS011;3104;50.348;7.620;2022-09-21T12:58:27;1.47;;;0.80;;
6145;SDS011;3104;50.348;7.620;2022-09-21T13:03:40;1.57;;;0.87;;
6145;SDS011;3104;50.348;7.620;2022-09-21T13:06:34;2.20;;;1.00;;
6145;SDS011;3104;50.348;7.620;2022-09-21T13:09:21;0.93;;;0.90;;
6145;SDS011;3104;50.348;7.620;2022-09-21T13:11:49;1.13;;;0.90;;
6145;SDS011;3104;50.348;7.620;2022-09-21T13:14:21;1.70;;;0.90;;
6145;SDS011;3104;50.348;7.620;2022-09-21T13:16:56;2.17;;;1.10;;
6145;SDS011;3104;50.348;7.620;2022-09-21T13:19:25;1.50;;;0.70;;
6145;SDS011;3104;50.348;7.620;2022-09-21T13:22:09;0.97;;;0.73;;
6145;SDS011;3104;50.348;7.620;2022-09-21T13:24:38;0.73;;;0.70;;
6145;SDS011;3104;50.348;7.620;2022-09-21T13:27:06;1.07;;;1.00;;
6145;SDS011;3104;50.348;7.620;2022-09-21T13:29:33;1.20;;;0.80;;
6145;SDS011;3104;50.348;7.620;2022-09-21T13:32:01;0.83;;;0.70;;
6145;SDS011;3104;50.348;7.620;2022-09-21T13:34:44;1.10;;;1.10;;
6145;SDS011;3104;50.348;7.620;2022-09-21T13:44:57;0.77;;;0.77;;
6145;SDS011;3104;50.348;7.620;2022-09-21T13:47:34;2.00;;;0.73;;
6145;SDS011;3104;50.348;7.620;2022-09-21T13:52:53;0.70;;;0.60;;
6145;SDS011;3104;50.348;7.620;2022-09-21T13:55:28;0.63;;;0.63;;
6145;SDS011;3104;50.348;7.620;2022-09-21T13:57:57;0.97;;;0.60;;
6145;SDS011;3104;50.348;7.620;2022-09-21T14:00:35;0.70;;;0.60;;
6145;SDS011;3104;50.348;7.620;2022-09-21T14:03:17;0.63;;;0.63;;
6145;SDS011;3104;50.348;7.620;2022-09-21T14:05:48;2.33;;;0.60;;
6145;SDS011;3104;50.348;7.620;2022-09-21T14:08:30;1.20;;;0.63;;
6145;SDS011;3104;50.348;7.620;2022-09-21T14:11:02;1.40;;;0.77;;
6145;SDS011;3104;50.348;7.620;2022-09-21T14:13:33;2.10;;;0.80;;
6145;SDS011;3104;50.348;7.620;2022-09-21T14:16:24;1.60;;;0.70;;
6145;SDS011;3104;50.348;7.620;2022-09-21T14:18:59;0.77;;;0.77;;
6145;SDS011;3104;50.348;7.620;2022-09-21T14:21:26;1.00;;;0.60;;
6145;SDS011;3104;50.348;7.620;2022-09-21T14:26:35;0.70;;;0.70;;
6145;SDS011;3104;50.348;7.620;2022-09-21T14:29:20;0.83;;;0.70;;
6145;SDS011;3104;50.348;7.620;2022-09-21T14:31:59;1.23;;;0.67;;
6145;SDS011;3104;50.348;7.620;2022-09-21T14:34:30;1.30;;;0.80;;
6145;SDS011;3104;50.348;7.620;2022-09-21T14:37:00;0.80;;;0.80;;
6145;SDS011;3104;50.348;7.620;2022-09-21T14:39:31;1.30;;;0.83;;
6145;SDS011;3104;50.348;7.620;2022-09-21T14:42:01;0.77;;;0.77;;
6145;SDS011;3104;50.348;7.620;2022-09-21T14:44:36;0.70;;;0.70;;
6145;SDS011;3104;50.348;7.620;2022-09-21T14:55:28;1.17;;;0.70;;
6145;SDS011;3104;50.348;7.620;2022-09-21T14:58:23;2.40;;;2.20;;
6145;SDS011;3104;50.348;7.620;2022-09-21T15:06:54;1.57;;;0.57;;
6145;SDS011;3104;50.348;7.620;2022-09-21T15:13:08;1.37;;;1.10;;
6145;SDS011;3104;50.348;7.620;2022-09-21T15:18:46;0.73;;;0.70;;
6145;SDS011;3104;50.348;7.620;2022-09-21T15:23:50;2.40;;;0.70;;
6145;SDS011;3104;50.348;7.620;2022-09-21T15:26:51;1.00;;;1.00;;
6145;SDS011;3104;50.348;7.620;2022-09-21T15:29:12;1.17;;;0.70;;
6145;SDS011;3104;50.348;7.620;2022-09-21T15:31:54;1.43;;;0.90;;
6145;SDS011;3104;50.348;7.620;2022-09-21T15:34:20;1.90;;;1.77;;
6145;SDS011;3104;50.348;7.620;2022-09-21T15:36:46;1.03;;;0.93;;
6145;SDS011;3104;50.348;7.620;2022-09-21T15:39:29;0.70;;;0.70;;
6145;SDS011;3104;50.348;7.620;2022-09-21T15:44:34;0.90;;;0.90;;
6145;SDS011;3104;50.348;7.620;2022-09-21T15:47:01;1.73;;;0.90;;
6145;SDS011;3104;50.348;7.620;2022-09-21T15:49:32;1.40;;;0.77;;
6145;SDS011;3104;50.348;7.620;2022-09-21T15:52:01;0.70;;;0.70;;
6145;SDS011;3104;50.348;7.620;2022-09-21T15:57:02;0.80;;;0.80;;
6145;SDS011;3104;50.348;7.620;2022-09-21T15:59:31;0.60;;;0.60;;
6145;SDS011;3104;50.348;7.620;2022-09-21T16:01:59;1.53;;;0.80;;
6145;SDS011;3104;50.348;7.620;2022-09-21T16:04:34;0.80;;;0.80;;
6145;SDS011;3104;50.348;7.620;2022-09-21T16:07:04;2.73;;;0.87;;
6145;SDS011;3104;50.348;7.620;2022-09-21T16:14:50;1.03;;;0.80;;
6145;SDS011;3104;50.348;7.620;2022-09-21T16:25:02;0.70;;;0.70;;
6145;SDS011;3104;50.348;7.620;2022-09-21T16:27:49;1.47;;;0.83;;
6145;SDS011;3104;50.348;7.620;2022-09-21T16:36:50;1.63;;;1.00;;
6145;SDS011;3104;50.348;7.620;2022-09-21T16:38:53;0.80;;;0.80;;
6145;SDS011;3104;50.348;7.620;2022-09-21T16:41:19;1.17;;;1.10;;
6145;SDS011;3104;50.348;7.620;2022-09-21T16:43:46;0.87;;;0.87;;
6145;SDS011;3104;50.348;7.620;2022-09-21T16:46:14;1.27;;;0.97;;
6145;SDS011;3104;50.348;7.620;2022-09-21T16:48:42;1.10;;;1.10;;
6145;SDS011;3104;50.348;7.620;2022-09-21T16:51:11;0.93;;;0.63;;
6145;SDS011;3104;50.348;7.620;2022-09-21T16:53:38;1.20;;;1.07;;
6145;SDS011;3104;50.348;7.620;2022-09-21T16:56:04;0.90;;;0.90;;
6145;SDS011;3104;50.348;7.620;2022-09-21T16:58:31;2.13;;;1.20;;
6145;SDS011;3104;50.348;7.620;2022-09-21T17:00:56;1.03;;;0.90;;
6145;SDS011;3104;50.348;7.620;2022-09-21T17:03:22;3.30;;;1.70;;
6145;SDS011;3104;50.348;7.620;2022-09-21T17:05:48;2.97;;;0.90;;
6145;SDS011;3104;50.348;7.620;2022-09-21T17:08:13;2.33;;;1.13;;
6145;SDS011;3104;50.348;7.620;2022-09-21T17:10:41;1.33;;;1.00;;
6145;SDS011;3104;50.348;7.620;2022-09-21T17:13:08;0.60;;;0.60;;
6145;SDS011;3104;50.348;7.620;2022-09-21T17:15:35;1.30;;;1.00;;
6145;SDS011;3104;50.348;7.620;2022-09-21T17:18:05;3.83;;;3.33;;
6145;SDS011;3104;50.348;7.620;2022-09-21T17:20:37;1.80;;;1.70;;
6145;SDS011;3104;50.348;7.620;2022-09-21T17:23:05;1.53;;;1.43;;
6145;SDS011;3104;50.348;7.620;2022-09-21T17:25:31;3.30;;;2.70;;
6145;SDS011;3104;50.348;7.620;2022-09-21T17:27:58;3.43;;;1.80;;
6145;SDS011;3104;50.348;7.620;2022-09-21T17:30:25;2.03;;;1.83;;
6145;SDS011;3104;50.348;7.620;2022-09-21T17:32:52;2.03;;;1.47;;
6145;SDS011;3104;50.348;7.620;2022-09-21T17:35:21;2.43;;;1.53;;
6145;SDS011;3104;50.348;7.620;2022-09-21T17:38:09;1.07;;;0.90;;
6145;SDS011;3104;50.348;7.620;2022-09-21T17:40:35;1.07;;;1.03;;
6145;SDS011;3104;50.348;7.620;2022-09-21T17:45:40;1.83;;;1.60;;
6145;SDS011;3104;50.348;7.620;2022-09-21T17:48:17;1.43;;;0.90;;
6145;SDS011;3104;50.348;7.620;2022-09-21T17:50:44;1.20;;;0.97;;
6145;SDS011;3104;50.348;7.620;2022-09-21T17:53:10;3.70;;;3.43;;
6145;SDS011;3104;50.348;7.620;2022-09-21T17:58:59;1.13;;;1.03;;
6145;SDS011;3104;50.348;7.620;2022-09-21T18:01:36;3.77;;;1.00;;
6145;SDS011;3104;50.348;7.620;2022-09-21T18:04:04;2.00;;;1.90;;
6145;SDS011;3104;50.348;7.620;2022-09-21T18:06:31;4.33;;;1.80;;
6145;SDS011;3104;50.348;7.620;2022-09-21T18:08:58;4.80;;;4.40;;
6145;SDS011;3104;50.348;7.620;2022-09-21T18:14:30;8.70;;;7.90;;
6145;SDS011;3104;50.348;7.620;2022-09-21T18:19:50;1.63;;;1.53;;
6145;SDS011;3104;50.348;7.620;2022-09-21T18:25:18;2.07;;;1.50;;
6145;SDS011;3104;50.348;7.620;2022-09-21T18:27:49;3.60;;;3.30;;
6145;SDS011;3104;50.348;7.620;2022-09-21T18:30:16;5.67;;;5.17;;
6145;SDS011;3104;50.348;7.620;2022-09-21T18:32:46;6.33;;;5.30;;
6145;SDS011;3104;50.348;7.620;2022-09-21T18:41:11;1.10;;;1.00;;
6145;SDS011;3104;50.348;7.620;2022-09-21T18:44:04;1.87;;;1.60;;
6145;SDS011;3104;50.348;7.620;2022-09-21T18:49:48;1.53;;;1.00;;
6145;SDS011;3104;50.348;7.620;2022-09-21T18:55:32;3.50;;;1.50;;
6145;SDS011;3104;50.348;7.620;2022-09-21T18:58:00;2.90;;;2.60;;
6145;SDS011;3104;50.348;7.620;2022-09-21T19:00:26;7.07;;;6.07;;
6145;SDS011;3104;50.348;7.620;2022-09-21T19:02:58;5.63;;;3.70;;
6145;SDS011;3104;50.348;7.620;2022-09-21T19:05:29;3.27;;;2.60;;
6145;SDS011;3104;50.348;7.620;2022-09-21T19:08:01;2.80;;;2.53;;
6145;SDS011;3104;50.348;7.620;2022-09-21T19:10:47;1.83;;;1.73;;
6145;SDS011;3104;50.348;7.620;2022-09-21T19:13:21;2.70;;;1.83;;